createdAt,value
2019-02-18T00:01:03.958Z,8.73
2019-02-18T00:03:32.118Z,8.67
2019-02-18T00:06:00.290Z,8.65
2019-02-18T00:08:28.447Z,8.65
2019-02-18T00:10:56.505Z,8.62
2019-02-18T00:13:24.861Z,8.61
2019-02-18T00:15:52.944Z,8.59
2019-02-18T00:18:21.050Z,8.59
2019-02-18T00:20:49.107Z,8.58
2019-02-18T00:23:17.197Z,8.55
2019-02-18T00:25:45.261Z,8.53
2019-02-18T00:28:13.675Z,8.51
2019-02-18T00:30:41.740Z,8.48
2019-02-18T00:33:09.807Z,8.46
2019-02-18T00:35:43.506Z,8.43
2019-02-18T00:38:11.720Z,8.40
2019-02-18T00:40:41.073Z,8.36
2019-02-18T00:43:09.156Z,8.32
2019-02-18T00:45:37.228Z,8.28
2019-02-18T00:48:05.304Z,8.26
2019-02-18T00:50:33.378Z,8.25
2019-02-18T00:53:03.945Z,8.20
2019-02-18T00:55:31.521Z,8.16
2019-02-18T00:57:59.636Z,8.09
2019-02-18T01:00:27.682Z,8.06
2019-02-18T01:02:55.751Z,8.04
2019-02-18T01:05:24.046Z,7.99
2019-02-18T01:07:52.263Z,7.93
2019-02-18T01:10:20.325Z,7.91
2019-02-18T01:12:48.391Z,7.88
2019-02-18T01:15:16.460Z,7.86
2019-02-18T01:17:46.230Z,7.83
2019-02-18T01:20:14.607Z,7.82
2019-02-18T01:22:44.649Z,7.78
2019-02-18T01:25:12.934Z,7.76
2019-02-18T01:27:41.070Z,7.74
2019-02-18T01:30:12.747Z,7.71
2019-02-18T01:32:42.432Z,7.66
2019-02-18T01:35:12.535Z,7.62
2019-02-18T01:37:45.582Z,7.56
2019-02-18T01:40:12.705Z,7.51
2019-02-18T01:42:41.150Z,7.47
2019-02-18T01:45:11.114Z,7.42
2019-02-18T01:47:41.287Z,7.39
2019-02-18T01:50:12.688Z,7.38
2019-02-18T01:52:41.902Z,7.35
2019-02-18T01:55:11.575Z,7.32
2019-02-18T01:57:40.181Z,7.29
2019-02-18T02:00:14.415Z,7.26
2019-02-18T02:02:42.802Z,7.26
2019-02-18T02:05:13.540Z,7.24
2019-02-18T02:07:41.675Z,7.22
2019-02-18T02:10:11.616Z,7.16
2019-02-18T02:12:39.839Z,7.10
2019-02-18T02:15:13.577Z,7.09
2019-02-18T02:17:42.360Z,7.08
2019-02-18T02:20:12.795Z,7.04
2019-02-18T02:22:40.884Z,6.99
2019-02-18T02:25:09.089Z,6.96
2019-02-18T02:27:37.505Z,6.92
2019-02-18T02:30:06.951Z,6.89
2019-02-18T02:32:36.100Z,6.81
2019-02-18T02:35:04.406Z,6.78
2019-02-18T02:37:32.487Z,6.71
2019-02-18T02:40:00.724Z,6.71
2019-02-18T02:42:28.885Z,6.70
2019-02-18T02:44:57.046Z,6.69
2019-02-18T02:47:25.226Z,6.67
2019-02-18T02:49:53.672Z,6.65
2019-02-18T02:52:21.682Z,6.62
2019-02-18T02:54:49.887Z,6.58
2019-02-18T02:57:17.935Z,6.55
2019-02-18T02:59:45.986Z,6.54
2019-02-18T03:02:14.048Z,6.52
2019-02-18T03:05:05.387Z,6.53
2019-02-18T03:07:33.456Z,6.52
2019-02-18T03:10:01.550Z,6.52
2019-02-18T03:12:29.659Z,6.52
2019-02-18T03:14:57.739Z,6.52
2019-02-18T03:17:26.111Z,6.53
2019-02-18T03:19:54.203Z,6.53
2019-02-18T03:22:22.243Z,6.52
2019-02-18T03:25:22.698Z,6.50
2019-02-18T03:27:55.768Z,6.51
2019-02-18T03:30:54.177Z,6.46
2019-02-18T03:33:35.047Z,6.42
2019-02-18T03:36:03.095Z,6.41
2019-02-18T03:38:32.096Z,6.40
2019-02-18T03:41:03.389Z,6.42
2019-02-18T03:43:31.364Z,6.44
2019-02-18T03:45:59.472Z,6.48
2019-02-18T03:48:27.798Z,6.50
2019-02-18T03:50:55.870Z,6.53
2019-02-18T03:53:24.047Z,6.54
2019-02-18T03:55:52.122Z,6.56
2019-02-18T03:58:20.200Z,6.55
2019-02-18T04:00:48.581Z,6.55
2019-02-18T04:03:16.622Z,6.56
2019-02-18T04:05:44.734Z,6.53
2019-02-18T04:08:12.895Z,6.52
2019-02-18T04:10:41.195Z,6.51
2019-02-18T04:13:09.310Z,6.48
2019-02-18T04:15:37.518Z,6.47
2019-02-18T04:18:05.726Z,6.42
2019-02-18T04:20:33.792Z,6.42
2019-02-18T04:23:01.881Z,6.35
2019-02-18T04:25:29.900Z,6.32
2019-02-18T04:27:57.975Z,6.26
2019-02-18T04:30:26.029Z,6.22
2019-02-18T04:32:54.393Z,6.16
2019-02-18T04:35:22.842Z,6.11
2019-02-18T04:37:50.947Z,6.06
2019-02-18T04:40:19.116Z,5.97
2019-02-18T04:42:48.020Z,5.91
2019-02-18T04:45:16.285Z,5.88
2019-02-18T04:47:44.350Z,5.85
2019-02-18T04:50:12.593Z,5.80
2019-02-18T04:52:41.798Z,5.80
2019-02-18T04:55:10.075Z,5.79
2019-02-18T04:57:38.625Z,5.75
2019-02-18T05:00:08.513Z,5.77
2019-02-18T05:02:36.845Z,5.75
2019-02-18T05:05:06.493Z,5.71
2019-02-18T05:07:35.687Z,5.69
2019-02-18T05:10:04.509Z,5.66
2019-02-18T05:12:32.608Z,5.65
2019-02-18T05:15:02.024Z,5.63
2019-02-18T05:17:30.273Z,5.61
2019-02-18T05:19:58.472Z,5.61
2019-02-18T05:22:26.945Z,5.59
2019-02-18T05:24:55.068Z,5.57
2019-02-18T05:27:33.072Z,5.55
2019-02-18T05:29:53.168Z,5.53
2019-02-18T05:32:21.250Z,5.48
2019-02-18T05:34:49.339Z,5.45
2019-02-18T05:37:18.167Z,5.44
2019-02-18T05:39:46.532Z,5.42
2019-02-18T05:42:14.592Z,5.42
2019-02-18T05:44:42.663Z,5.42
2019-02-18T05:47:10.705Z,5.39
2019-02-18T05:49:40.202Z,5.38
2019-02-18T05:52:09.471Z,5.40
2019-02-18T05:54:37.532Z,5.42
2019-02-18T05:57:05.633Z,5.43
2019-02-18T05:59:33.702Z,5.43
2019-02-18T06:02:07.005Z,5.45
2019-02-18T06:04:35.051Z,5.47
2019-02-18T06:07:03.104Z,5.47
2019-02-18T06:09:31.284Z,5.45
2019-02-18T06:11:59.564Z,5.41
2019-02-18T06:14:27.675Z,5.37
2019-02-18T06:16:56.873Z,5.36
2019-02-18T06:19:24.969Z,5.34
2019-02-18T06:21:53.299Z,5.33
2019-02-18T06:24:22.479Z,5.33
2019-02-18T06:26:50.567Z,5.32
2019-02-18T06:29:18.700Z,5.31
2019-02-18T06:31:46.734Z,5.32
2019-02-18T06:34:14.829Z,5.30
2019-02-18T06:36:43.081Z,5.32
2019-02-18T06:39:11.170Z,5.32
2019-02-18T06:41:39.343Z,5.32
2019-02-18T06:44:07.412Z,5.30
2019-02-18T06:46:38.675Z,5.29
2019-02-18T06:49:15.444Z,5.29
2019-02-18T06:51:43.758Z,5.28
2019-02-18T06:54:11.804Z,5.26
2019-02-18T06:57:08.521Z,5.24
2019-02-18T06:59:46.444Z,5.25
2019-02-18T07:02:19.541Z,5.24
2019-02-18T07:05:25.882Z,5.26
2019-02-18T07:08:12.202Z,5.30
2019-02-18T07:10:55.224Z,5.33
2019-02-18T07:13:23.299Z,5.38
2019-02-18T07:15:51.348Z,5.43
2019-02-18T07:18:19.407Z,5.51
2019-02-18T07:20:47.809Z,5.60
2019-02-18T07:23:16.367Z,5.68
2019-02-18T07:25:44.418Z,5.80
2019-02-18T07:28:12.445Z,5.91
2019-02-18T07:30:40.904Z,6.02
2019-02-18T07:33:10.919Z,6.16
2019-02-18T07:35:39.000Z,6.33
2019-02-18T07:38:07.089Z,6.48
2019-02-18T07:40:35.102Z,6.64
2019-02-18T07:43:03.147Z,6.84
2019-02-18T07:45:31.209Z,7.03
2019-02-18T07:47:59.261Z,7.22
2019-02-18T07:50:27.286Z,7.41
2019-02-18T07:52:55.332Z,7.62
2019-02-18T07:55:23.578Z,7.82
2019-02-18T07:57:51.620Z,8.06
2019-02-18T08:00:19.985Z,8.29
2019-02-18T08:02:48.609Z,8.54
2019-02-18T08:05:16.668Z,8.69
2019-02-18T08:07:44.722Z,8.93
2019-02-18T08:10:12.773Z,9.18
2019-02-18T08:12:40.821Z,9.44
2019-02-18T08:15:09.371Z,9.69
2019-02-18T08:17:37.406Z,9.95
2019-02-18T08:20:06.890Z,10.24
2019-02-18T08:22:35.342Z,10.50
2019-02-18T08:25:03.776Z,10.75
2019-02-18T08:27:31.945Z,11.04
2019-02-18T08:29:59.978Z,11.36
2019-02-18T08:32:28.015Z,11.68
2019-02-18T08:34:56.088Z,11.95
2019-02-18T08:37:24.133Z,12.26
2019-02-18T08:39:52.590Z,12.57
2019-02-18T08:42:20.919Z,12.87
2019-02-18T08:44:49.824Z,13.19
2019-02-18T08:47:18.189Z,13.43
2019-02-18T08:49:46.253Z,13.60
2019-02-18T08:52:14.284Z,13.80
2019-02-18T08:54:42.413Z,13.93
2019-02-18T08:57:10.449Z,14.16
2019-02-18T08:59:38.537Z,14.44
2019-02-18T09:02:06.541Z,14.73
2019-02-18T09:04:34.616Z,14.98
2019-02-18T09:07:02.633Z,15.14
2019-02-18T09:09:30.774Z,15.34
2019-02-18T09:11:58.833Z,15.62
2019-02-18T09:14:27.214Z,15.93
2019-02-18T09:16:55.597Z,16.25
2019-02-18T09:19:23.669Z,16.65
2019-02-18T09:22:01.751Z,17.00
2019-02-18T09:24:39.605Z,17.32
2019-02-18T09:27:07.648Z,17.33
2019-02-18T09:29:35.699Z,17.50
2019-02-18T09:32:03.754Z,17.93
2019-02-18T09:34:33.002Z,18.40
2019-02-18T09:37:01.097Z,18.81
2019-02-18T09:39:31.467Z,19.24
2019-02-18T09:41:59.190Z,19.68
2019-02-18T09:44:27.251Z,20.15
2019-02-18T09:46:55.340Z,20.65
2019-02-18T09:49:23.422Z,21.21
2019-02-18T09:51:51.823Z,21.76
2019-02-18T09:54:19.911Z,22.22
2019-02-18T09:56:48.394Z,22.67
2019-02-18T09:59:17.727Z,23.08
2019-02-18T10:01:46.931Z,23.43
2019-02-18T10:04:14.988Z,23.69
2019-02-18T10:06:44.254Z,24.02
2019-02-18T10:09:12.431Z,24.33
2019-02-18T10:11:40.552Z,24.65
2019-02-18T10:14:08.791Z,24.96
2019-02-18T10:16:37.005Z,25.24
2019-02-18T10:19:05.125Z,25.46
2019-02-18T10:21:34.208Z,25.62
2019-02-18T10:24:02.384Z,25.70
2019-02-18T10:26:30.523Z,25.70
2019-02-18T10:28:58.888Z,25.73
2019-02-18T10:31:26.942Z,25.79
2019-02-18T10:33:55.035Z,25.89
2019-02-18T10:36:23.548Z,26.03
2019-02-18T10:38:52.555Z,26.13
2019-02-18T10:41:20.582Z,26.23
2019-02-18T10:43:49.011Z,26.45
2019-02-18T10:46:17.028Z,26.71
2019-02-18T10:48:45.773Z,26.92
2019-02-18T10:51:14.142Z,27.14
2019-02-18T10:53:42.196Z,27.39
2019-02-18T10:56:10.629Z,27.70
2019-02-18T10:58:38.706Z,28.01
2019-02-18T11:01:07.043Z,28.25
2019-02-18T11:03:35.552Z,28.49
2019-02-18T11:06:03.634Z,28.75
2019-02-18T11:08:31.827Z,29.09
2019-02-18T11:10:59.897Z,29.44
2019-02-18T11:13:28.007Z,29.76
2019-02-18T11:15:56.196Z,30.08
2019-02-18T11:18:24.351Z,30.47
2019-02-18T11:20:53.200Z,30.83
2019-02-18T11:23:21.282Z,31.13
2019-02-18T11:25:49.355Z,31.33
2019-02-18T11:28:17.417Z,31.48
2019-02-18T11:30:45.764Z,31.65
2019-02-18T11:33:14.674Z,31.85
2019-02-18T11:35:43.026Z,32.04
2019-02-18T11:38:11.493Z,32.12
2019-02-18T11:40:39.619Z,32.14
2019-02-18T11:43:08.965Z,32.12
2019-02-18T11:45:37.541Z,32.16
2019-02-18T11:48:05.587Z,32.14
2019-02-18T11:50:34.138Z,32.17
2019-02-18T11:53:04.237Z,32.27
2019-02-18T11:55:33.710Z,32.42
2019-02-18T11:58:01.884Z,32.60
2019-02-18T12:00:30.036Z,32.78
2019-02-18T12:03:03.163Z,33.03
2019-02-18T12:05:28.658Z,33.24
2019-02-18T12:07:58.475Z,33.38
2019-02-18T12:10:26.580Z,33.43
2019-02-18T12:12:55.900Z,33.49
2019-02-18T12:15:24.738Z,33.53
2019-02-18T12:17:53.929Z,33.59
2019-02-18T12:20:26.192Z,33.77
2019-02-18T12:22:54.322Z,33.96
2019-02-18T12:25:22.805Z,34.15
2019-02-18T12:27:51.308Z,34.20
2019-02-18T12:30:19.762Z,34.34
2019-02-18T12:32:48.547Z,34.50
2019-02-18T12:35:16.708Z,34.67
2019-02-18T12:37:54.706Z,34.73
2019-02-18T12:40:14.721Z,34.83
2019-02-18T12:42:42.979Z,34.95
2019-02-18T12:45:11.428Z,35.01
2019-02-18T12:47:39.478Z,35.00
2019-02-18T12:50:07.893Z,35.01
2019-02-18T12:52:35.948Z,35.06
2019-02-18T12:55:05.507Z,35.19
2019-02-18T12:57:33.970Z,35.25
2019-02-18T13:00:02.137Z,35.21
2019-02-18T13:02:30.288Z,35.27
2019-02-18T13:04:58.404Z,35.39
2019-02-18T13:07:26.790Z,35.49
2019-02-18T13:09:56.636Z,35.52
2019-02-18T13:12:24.709Z,35.57
2019-02-18T13:14:53.436Z,35.60
2019-02-18T13:17:22.955Z,35.52
2019-02-18T13:19:50.986Z,35.48
2019-02-18T13:22:19.026Z,35.39
2019-02-18T13:24:47.079Z,35.28
2019-02-18T13:27:15.111Z,35.24
2019-02-18T13:29:43.131Z,35.23
2019-02-18T13:32:11.549Z,35.26
2019-02-18T13:34:39.977Z,35.36
2019-02-18T13:37:11.333Z,35.51
2019-02-18T13:39:39.345Z,35.61
2019-02-18T13:42:07.931Z,35.73
2019-02-18T13:44:36.356Z,35.81
2019-02-18T13:47:04.588Z,35.83
2019-02-18T13:49:32.590Z,35.83
2019-02-18T13:52:00.687Z,35.74
2019-02-18T13:54:28.795Z,35.58
2019-02-18T13:56:56.849Z,35.39
2019-02-18T13:59:26.006Z,35.23
2019-02-18T14:01:54.107Z,35.05
2019-02-18T14:04:22.157Z,34.87
2019-02-18T14:06:50.527Z,34.75
2019-02-18T14:09:19.080Z,34.70
2019-02-18T14:11:47.266Z,34.61
2019-02-18T14:14:15.357Z,34.44
2019-02-18T14:16:43.467Z,34.27
2019-02-18T14:19:11.506Z,34.11
2019-02-18T14:21:39.966Z,34.02
2019-02-18T14:24:09.992Z,33.94
2019-02-18T14:26:38.099Z,33.73
2019-02-18T14:29:06.206Z,33.47
2019-02-18T14:31:35.614Z,33.22
2019-02-18T14:34:03.682Z,32.93
2019-02-18T14:36:32.261Z,32.66
2019-02-18T14:39:01.313Z,32.49
2019-02-18T14:41:31.080Z,32.31
2019-02-18T14:43:59.467Z,32.11
2019-02-18T14:46:27.505Z,31.86
2019-02-18T14:48:55.801Z,31.61
2019-02-18T14:51:23.838Z,31.35
2019-02-18T14:53:52.032Z,31.12
2019-02-18T14:56:21.709Z,30.93
2019-02-18T14:58:49.738Z,30.73
2019-02-18T15:01:17.959Z,30.56
2019-02-18T15:03:46.029Z,30.39
2019-02-18T15:06:14.125Z,30.24
2019-02-18T15:08:42.179Z,30.08
2019-02-18T15:11:10.642Z,29.84
2019-02-18T15:13:38.749Z,29.63
2019-02-18T15:16:06.820Z,29.45
2019-02-18T15:18:35.170Z,29.24
2019-02-18T15:21:03.353Z,29.05
2019-02-18T15:23:31.486Z,28.86
2019-02-18T15:25:59.539Z,28.68
2019-02-18T15:28:27.608Z,28.51
2019-02-18T15:30:56.170Z,28.35
2019-02-18T15:33:24.267Z,28.21
2019-02-18T15:35:52.309Z,28.12
2019-02-18T15:38:20.426Z,28.03
2019-02-18T15:40:48.622Z,27.91
2019-02-18T15:43:17.059Z,27.76
2019-02-18T15:45:46.231Z,27.66
2019-02-18T15:48:14.473Z,27.55
2019-02-18T15:50:42.539Z,27.46
2019-02-18T15:53:11.972Z,27.33
2019-02-18T15:55:41.924Z,27.19
2019-02-18T15:58:10.407Z,27.06
2019-02-18T16:00:38.560Z,26.93
2019-02-18T16:03:06.633Z,26.80
2019-02-18T16:05:34.736Z,26.66
2019-02-18T16:08:02.820Z,26.52
2019-02-18T16:10:31.002Z,26.39
2019-02-18T16:13:00.227Z,26.24
2019-02-18T16:15:28.845Z,26.06
2019-02-18T16:17:56.945Z,25.89
2019-02-18T16:20:24.936Z,25.72
2019-02-18T16:22:53.029Z,25.52
2019-02-18T16:25:22.514Z,25.31
2019-02-18T16:27:50.876Z,25.10
2019-02-18T16:30:18.942Z,24.87
2019-02-18T16:32:47.104Z,24.64
2019-02-18T16:35:15.512Z,24.42
2019-02-18T16:37:43.970Z,24.19
2019-02-18T16:40:14.504Z,23.95
2019-02-18T16:42:43.068Z,23.73
2019-02-18T16:45:13.541Z,23.48
2019-02-18T16:47:41.954Z,23.24
2019-02-18T16:50:10.291Z,23.01
2019-02-18T16:52:38.449Z,22.74
2019-02-18T16:55:08.545Z,22.39
2019-02-18T16:57:38.184Z,21.99
2019-02-18T17:00:18.920Z,21.60
2019-02-18T17:02:47.085Z,21.26
2019-02-18T17:05:15.242Z,20.97
2019-02-18T17:07:43.359Z,20.70
2019-02-18T17:10:11.433Z,20.42
2019-02-18T17:12:39.561Z,20.08
2019-02-18T17:15:09.159Z,19.67
2019-02-18T17:17:37.980Z,19.29
2019-02-18T17:20:06.582Z,18.97
2019-02-18T17:22:34.903Z,18.69
2019-02-18T17:25:02.979Z,18.38
2019-02-18T17:27:32.391Z,18.12
2019-02-18T17:30:00.811Z,17.94
2019-02-18T17:32:28.968Z,17.79
2019-02-18T17:34:57.582Z,17.67
2019-02-18T17:37:25.847Z,17.55
2019-02-18T17:39:53.875Z,17.41
2019-02-18T17:42:23.520Z,17.26
2019-02-18T17:44:51.757Z,17.04
2019-02-18T17:47:22.026Z,16.87
2019-02-18T17:49:50.185Z,16.71
2019-02-18T17:52:18.883Z,16.54
2019-02-18T17:54:46.931Z,16.38
2019-02-18T17:57:15.132Z,16.23
2019-02-18T17:59:43.334Z,16.05
2019-02-18T18:02:11.491Z,15.86
2019-02-18T18:04:40.287Z,15.68
2019-02-18T18:07:10.708Z,15.48
2019-02-18T18:09:38.806Z,15.33
2019-02-18T18:12:08.695Z,15.18
2019-02-18T18:14:36.859Z,15.02
2019-02-18T18:17:04.905Z,14.87
2019-02-18T18:19:33.117Z,14.73
2019-02-18T18:22:01.483Z,14.59
2019-02-18T18:24:30.821Z,14.43
2019-02-18T18:26:58.865Z,14.31
2019-02-18T18:29:26.987Z,14.21
2019-02-18T18:31:56.485Z,14.12
2019-02-18T18:34:26.051Z,14.04
2019-02-18T18:36:54.094Z,13.96
2019-02-18T18:39:22.295Z,13.84
2019-02-18T18:41:50.846Z,13.76
2019-02-18T18:44:20.230Z,13.67
2019-02-18T18:46:48.267Z,13.60
2019-02-18T18:49:16.834Z,13.52
2019-02-18T18:51:44.861Z,13.45
2019-02-18T18:54:13.184Z,13.37
2019-02-18T18:56:41.217Z,13.28
2019-02-18T18:59:09.455Z,13.21
2019-02-18T19:01:37.570Z,13.12
2019-02-18T19:04:05.887Z,13.07
2019-02-18T19:06:34.967Z,12.99
2019-02-18T19:09:03.890Z,12.89
2019-02-18T19:11:32.357Z,12.79
2019-02-18T19:14:00.809Z,12.72
2019-02-18T19:16:29.125Z,12.64
2019-02-18T19:18:57.920Z,12.57
2019-02-18T19:21:26.003Z,12.53
2019-02-18T19:23:54.469Z,12.48
2019-02-18T19:26:22.510Z,12.43
2019-02-18T19:28:50.708Z,12.36
2019-02-18T19:31:18.760Z,12.29
2019-02-18T19:33:46.872Z,12.22
2019-02-18T19:36:15.170Z,12.17
2019-02-18T19:38:43.248Z,12.12
2019-02-18T19:41:11.325Z,12.05
2019-02-18T19:43:39.397Z,11.97
2019-02-18T19:46:07.715Z,11.88
2019-02-18T19:48:35.780Z,11.79
2019-02-18T19:51:04.148Z,11.71
2019-02-18T19:53:32.210Z,11.66
2019-02-18T19:56:20.524Z,11.59
2019-02-18T19:58:49.618Z,11.54
2019-02-18T20:01:18.140Z,11.48
2019-02-18T20:03:46.268Z,11.45
2019-02-18T20:06:14.725Z,11.39
2019-02-18T20:08:42.937Z,11.35
2019-02-18T20:11:12.468Z,11.33
2019-02-18T20:13:40.753Z,11.32
2019-02-18T20:16:08.813Z,11.29
2019-02-18T20:18:39.086Z,11.26
2019-02-18T20:21:07.196Z,11.23
2019-02-18T20:23:35.416Z,11.20
2019-02-18T20:26:03.513Z,11.15
2019-02-18T20:28:31.679Z,11.09
2019-02-18T20:30:59.788Z,11.05
2019-02-18T20:33:28.471Z,11.02
2019-02-18T20:35:56.648Z,10.99
2019-02-18T20:38:24.741Z,10.91
2019-02-18T20:40:52.829Z,10.88
2019-02-18T20:43:21.469Z,10.85
2019-02-18T20:45:49.563Z,10.82
2019-02-18T20:48:17.603Z,10.78
2019-02-18T20:50:47.609Z,10.74
2019-02-18T20:53:16.181Z,10.71
2019-02-18T20:55:44.785Z,10.69
2019-02-18T20:58:12.899Z,10.64
2019-02-18T21:00:42.098Z,10.62
2019-02-18T21:03:10.132Z,10.59
2019-02-18T21:05:38.685Z,10.55
2019-02-18T21:08:06.730Z,10.51
2019-02-18T21:10:34.905Z,10.48
2019-02-18T21:13:03.214Z,10.46
2019-02-18T21:15:31.274Z,10.43
2019-02-18T21:17:59.572Z,10.37
2019-02-18T21:20:28.392Z,10.32
2019-02-18T21:22:57.601Z,10.28
2019-02-18T21:25:25.670Z,10.22
2019-02-18T21:27:53.887Z,10.19
2019-02-18T21:30:22.201Z,10.19
2019-02-18T21:32:50.263Z,10.17
2019-02-18T21:35:18.366Z,10.16
2019-02-18T21:37:46.404Z,10.13
2019-02-18T21:40:14.504Z,10.10
2019-02-18T21:42:42.579Z,10.06
2019-02-18T21:45:11.095Z,10.05
2019-02-18T21:47:39.353Z,10.04
2019-02-18T21:50:08.156Z,10.00
2019-02-18T21:52:36.556Z,9.97
2019-02-18T21:55:05.016Z,9.95
2019-02-18T21:57:33.049Z,9.92
2019-02-18T22:00:01.139Z,9.90
2019-02-18T22:02:29.195Z,9.88
2019-02-18T22:04:58.112Z,9.86
2019-02-18T22:07:26.196Z,9.84
2019-02-18T22:09:54.543Z,9.84
2019-02-18T22:12:22.600Z,9.84
2019-02-18T22:14:50.712Z,9.84
2019-02-18T22:17:18.766Z,9.83
2019-02-18T22:19:47.880Z,9.81
2019-02-18T22:22:15.968Z,9.77
2019-02-18T22:24:44.034Z,9.71
2019-02-18T22:27:12.792Z,9.65
2019-02-18T22:29:40.823Z,9.61
2019-02-18T22:32:08.888Z,9.57
2019-02-18T22:34:36.930Z,9.49
2019-02-18T22:37:05.494Z,9.44
2019-02-18T22:39:33.857Z,9.37
2019-02-18T22:42:01.926Z,9.26
2019-02-18T22:44:31.138Z,9.21
2019-02-18T22:47:01.588Z,9.16
2019-02-18T22:49:29.718Z,9.15
2019-02-18T22:51:57.767Z,9.14
2019-02-18T22:54:26.109Z,9.11
2019-02-18T22:56:54.165Z,9.11
2019-02-18T22:59:22.187Z,9.08
2019-02-18T23:01:50.423Z,9.03
2019-02-18T23:04:18.472Z,9.00
2019-02-18T23:06:46.556Z,8.94
2019-02-18T23:09:15.109Z,8.92
2019-02-18T23:11:43.164Z,8.90
2019-02-18T23:14:11.245Z,8.87
2019-02-18T23:16:40.887Z,8.81
2019-02-18T23:19:09.304Z,8.75
2019-02-18T23:21:37.367Z,8.71
2019-02-18T23:24:05.662Z,8.66
2019-02-18T23:26:33.707Z,8.63
2019-02-18T23:29:01.776Z,8.61
2019-02-18T23:31:30.111Z,8.59
2019-02-18T23:33:58.135Z,8.56
2019-02-18T23:36:26.200Z,8.53
2019-02-18T23:38:54.256Z,8.54
2019-02-18T23:41:22.367Z,8.49
2019-02-18T23:43:50.429Z,8.46
2019-02-18T23:46:18.476Z,8.42
2019-02-18T23:48:46.842Z,8.40
2019-02-18T23:51:14.915Z,8.38
2019-02-18T23:53:43.321Z,8.39
2019-02-18T23:56:12.570Z,8.36
2019-02-18T23:58:40.621Z,8.35
